LFOB 171430Z AUTO 22006KT CAVOK 09/06 Q1022 BECMG OVC006

ElémentsDécodage
LFOB Station météo située sur l'aérodrome de BEAUVAIS Tillé
171430Z émis le 17 du mois à 14h30 UTC
AUTO Bulletin édité par un automate
22006KT vent du 220°, 06 noeuds
CAVOK Ceiling And Visibility OK
- Visibilité de 10 Km ou plus
- Pas de nuage au-dessous de 1500m ou au-dessous de l'altitude minimale du secteur la plus élevée (si>1500m) et absence de CB
- pas de temps présent significatif
09/06 température 09°C, point de rosée 06°C
 soit une humidité relative de 81%
Q1022 la pression au niveau de la mer (QNH) est de 1022 hPa
BECMG fluctuation du temps prévue
OVC006 couverture nuageuse totale (8/8) à 600 pieds